Private Wetterstation Sandau
Wetterdaten: Mittwoch, 18.04.2012
Datum Zeit Temp. A. Feuchte A. Luftdruck Regen Wind Richtung Richtung Taupunkt Windchill
18.04.2012 00:01 5,4 C 57 % 1004,5 hPa 0,0 l/m 3,2 km/h (1 Bft) O-SO 112 -2,4 C 5,4 C
18.04.2012 00:06 5,3 C 57 % 1004,5 hPa 0,0 l/m 10,4 km/h (2 Bft) SO 135 -2,5 C 2,9 C
18.04.2012 00:11 5,4 C 57 % 1004,2 hPa 0,0 l/m 8,3 km/h (2 Bft) SO 135 -2,4 C 3,5 C
18.04.2012 00:16 5,4 C 57 % 1004,3 hPa 0,0 l/m 2,5 km/h (1 Bft) SO 135 -2,4 C 5,4 C
18.04.2012 00:21 5,4 C 57 % 1004,2 hPa 0,0 l/m 5,4 km/h (1 Bft) SO 135 -2,4 C 4,4 C
18.04.2012 00:26 5,4 C 57 % 1004,2 hPa 0,0 l/m 3,2 km/h (1 Bft) SO 135 -2,4 C 5,4 C
18.04.2012 00:31 5,4 C 57 % 1004,2 hPa 0,0 l/m 0,0 km/h (0 Bft) SO 135 -2,4 C 5,4 C
18.04.2012 00:36 5,5 C 57 % 1004,1 hPa 0,0 l/m 2,5 km/h (1 Bft) O 90 -2,3 C 5,5 C
18.04.2012 00:41 5,6 C 57 % 1004,1 hPa 0,0 l/m 1,4 km/h (1 Bft) SO 135 -2,2 C 5,6 C
18.04.2012 00:46 5,6 C 57 % 1004,0 hPa 0,0 l/m 3,6 km/h (1 Bft) S-SO 157 -2,2 C 5,6 C
18.04.2012 00:51 5,6 C 56 % 1004,0 hPa 0,0 l/m 5,0 km/h (1 Bft) S-SO 157 -2,5 C 4,8 C
18.04.2012 00:56 5,7 C 56 % 1004,1 hPa 0,0 l/m 6,1 km/h (2 Bft) O-SO 112 -2,4 C 4,5 C
18.04.2012 01:01 5,8 C 56 % 1003,8 hPa 0,0 l/m 9,4 km/h (2 Bft) SO 135 -2,3 C 3,7 C
18.04.2012 01:06 5,8 C 56 % 1003,7 hPa 0,0 l/m 8,3 km/h (2 Bft) SO 135 -2,3 C 4,0 C
18.04.2012 01:11 5,9 C 56 % 1003,8 hPa 0,0 l/m 5,0 km/h (1 Bft) S-SO 157 -2,2 C 5,1 C
18.04.2012 01:16 5,9 C 56 % 1003,6 hPa 0,0 l/m 7,6 km/h (2 Bft) S-SO 157 -2,2 C 4,3 C
18.04.2012 01:21 5,9 C 55 % 1003,7 hPa 0,0 l/m 10,8 km/h (2 Bft) S-SO 157 -2,4 C 3,6 C
18.04.2012 01:26 5,9 C 55 % 1003,5 hPa 0,0 l/m 11,9 km/h (2 Bft) S 180 -2,4 C 3,4 C
18.04.2012 01:31 5,9 C 55 % 1003,4 hPa 0,0 l/m 5,0 km/h (1 Bft) S-SO 157 -2,4 C 5,1 C
18.04.2012 01:36 5,9 C 55 % 1003,4 hPa 0,0 l/m 9,0 km/h (2 Bft) S 180 -2,4 C 4,0 C
18.04.2012 01:41 5,9 C 56 % 1003,3 hPa 0,0 l/m 5,0 km/h (1 Bft) S-SO 157 -2,2 C 5,1 C
18.04.2012 01:46 5,8 C 56 % 1003,3 hPa 0,0 l/m 5,4 km/h (1 Bft) O-SO 112 -2,3 C 4,8 C
18.04.2012 01:51 5,8 C 56 % 1003,1 hPa 0,0 l/m 5,4 km/h (1 Bft) SO 135 -2,3 C 4,8 C
18.04.2012 01:56 5,8 C 56 % 1003,0 hPa 0,0 l/m 5,0 km/h (1 Bft) SO 135 -2,3 C 5,0 C
18.04.2012 02:01 5,8 C 56 % 1003,0 hPa 0,0 l/m 2,9 km/h (1 Bft) O-SO 112 -2,3 C 5,8 C
18.04.2012 02:06 5,8 C 56 % 1003,0 hPa 0,0 l/m 2,9 km/h (1 Bft) O-SO 112 -2,3 C 5,8 C
18.04.2012 02:11 5,8 C 56 % 1002,9 hPa 0,0 l/m 8,6 km/h (2 Bft) SO 135 -2,3 C 3,9 C
18.04.2012 02:16 5,8 C 56 % 1002,5 hPa 0,0 l/m 2,5 km/h (1 Bft) S-SO 157 -2,3 C 5,8 C
18.04.2012 02:21 5,8 C 56 % 1002,7 hPa 0,0 l/m 2,9 km/h (1 Bft) SO 135 -2,3 C 5,8 C
18.04.2012 02:26 5,8 C 56 % 1002,6 hPa 0,0 l/m 5,0 km/h (1 Bft) SO 135 -2,3 C 5,0 C
18.04.2012 02:31 5,8 C 56 % 1002,6 hPa 0,0 l/m 6,5 km/h (2 Bft) S-SO 157 -2,3 C 4,5 C
18.04.2012 02:36 5,8 C 56 % 1002,5 hPa 0,0 l/m 5,4 km/h (1 Bft) SO 135 -2,3 C 4,8 C
18.04.2012 02:41 5,8 C 56 % 1002,3 hPa 0,0 l/m 4,0 km/h (1 Bft) SO 135 -2,3 C 5,8 C
18.04.2012 02:46 5,6 C 56 % 1002,4 hPa 0,0 l/m 4,7 km/h (1 Bft) S 180 -2,5 C 4,9 C
18.04.2012 02:51 5,6 C 56 % 1002,4 hPa 0,0 l/m 2,5 km/h (1 Bft) SO 135 -2,5 C 5,6 C
18.04.2012 02:56 5,6 C 56 % 1002,4 hPa 0,0 l/m 4,7 km/h (1 Bft) O-SO 112 -2,5 C 4,9 C
18.04.2012 03:01 5,6 C 57 % 1002,3 hPa 0,0 l/m 9,7 km/h (2 Bft) S-SO 157 -2,2 C 3,4 C
18.04.2012 03:06 5,5 C 57 % 1002,2 hPa 0,0 l/m 4,0 km/h (1 Bft) SO 135 -2,3 C 5,5 C
18.04.2012 03:11 5,5 C 57 % 1002,2 hPa 0,0 l/m 9,4 km/h (2 Bft) S 180 -2,3 C 3,4 C
18.04.2012 03:16 5,4 C 57 % 1002,2 hPa 0,0 l/m 5,0 km/h (1 Bft) SO 135 -2,4 C 4,5 C
18.04.2012 03:21 5,4 C 57 % 1002,2 hPa 0,0 l/m 13,7 km/h (3 Bft) S-SO 157 -2,4 C 2,4 C
18.04.2012 03:26 5,4 C 57 % 1002,1 hPa 0,0 l/m 9,4 km/h (2 Bft) S-SO 157 -2,4 C 3,3 C
18.04.2012 03:31 5,4 C 57 % 1001,9 hPa 0,0 l/m 4,3 km/h (1 Bft) S 180 -2,4 C 5,4 C
18.04.2012 03:36 5,4 C 57 % 1001,8 hPa 0,0 l/m 8,6 km/h (2 Bft) S-SO 157 -2,4 C 3,5 C
18.04.2012 03:41 5,4 C 57 % 1001,9 hPa 0,0 l/m 5,0 km/h (1 Bft) S-SO 157 -2,4 C 4,5 C
18.04.2012 03:46 5,3 C 57 % 1001,9 hPa 0,0 l/m 7,6 km/h (2 Bft) S-SO 157 -2,5 C 3,6 C
18.04.2012 03:51 5,3 C 57 % 1001,9 hPa 0,0 l/m 4,0 km/h (1 Bft) S-SO 157 -2,5 C 5,3 C
18.04.2012 03:56 5,3 C 58 % 1001,8 hPa 0,0 l/m 9,4 km/h (2 Bft) S 180 -2,3 C 3,1 C
18.04.2012 04:01 5,3 C 58 % 1001,8 hPa 0,0 l/m 8,3 km/h (2 Bft) S-SO 157 -2,3 C 3,4 C
18.04.2012 04:06 5,3 C 58 % 1001,8 hPa 0,0 l/m 2,5 km/h (1 Bft) SO 135 -2,3 C 5,3 C
18.04.2012 04:11 5,3 C 58 % 1001,6 hPa 0,0 l/m 4,0 km/h (1 Bft) O-SO 112 -2,3 C 5,3 C
18.04.2012 04:16 5,3 C 58 % 1001,6 hPa 0,0 l/m 1,8 km/h (1 Bft) O-SO 112 -2,3 C 5,3 C
18.04.2012 04:21 5,4 C 58 % 1001,6 hPa 0,0 l/m 4,0 km/h (1 Bft) S-SO 157 -2,2 C 5,4 C
18.04.2012 04:26 5,3 C 58 % 1001,6 hPa 0,0 l/m 12,6 km/h (3 Bft) S-SO 157 -2,3 C 2,5 C
18.04.2012 04:31 5,3 C 58 % 1001,6 hPa 0,0 l/m 12,6 km/h (3 Bft) S-SO 157 -2,3 C 2,5 C
18.04.2012 04:36 5,2 C 58 % 1001,5 hPa 0,0 l/m 5,0 km/h (1 Bft) S-SO 157 -2,4 C 4,3 C
18.04.2012 04:41 5,2 C 58 % 1001,6 hPa 0,0 l/m 2,9 km/h (1 Bft) SO 135 -2,4 C 5,2 C
18.04.2012 04:46 5,1 C 59 % 1001,4 hPa 0,0 l/m 10,8 km/h (2 Bft) SO 135 -2,2 C 2,6 C
18.04.2012 04:51 5,1 C 59 % 1001,3 hPa 0,0 l/m 1,8 km/h (1 Bft) S-SO 157 -2,2 C 5,1 C
18.04.2012 04:56 5,1 C 59 % 1001,3 hPa 0,0 l/m 2,9 km/h (1 Bft) S-SO 157 -2,2 C 5,1 C
18.04.2012 05:01 5,1 C 59 % 1001,3 hPa 0,0 l/m 3,2 km/h (1 Bft) S-SO 157 -2,2 C 5,1 C
18.04.2012 05:06 5,1 C 59 % 1001,2 hPa 0,0 l/m 4,3 km/h (1 Bft) SO 135 -2,2 C 5,1 C
18.04.2012 05:11 5,0 C 60 % 1001,2 hPa 0,0 l/m 8,3 km/h (2 Bft) SO 135 -2,1 C 3,1 C
18.04.2012 05:16 5,0 C 60 % 1001,2 hPa 0,0 l/m 9,7 km/h (2 Bft) SO 135 -2,1 C 2,7 C
18.04.2012 05:21 5,0 C 60 % 1001,2 hPa 0,0 l/m 13,7 km/h (3 Bft) S-SO 157 -2,1 C 2,0 C
18.04.2012 05:26 4,9 C 60 % 1001,2 hPa 0,0 l/m 5,0 km/h (1 Bft) S 180 -2,2 C 4,0 C
18.04.2012 05:31 4,9 C 61 % 1001,3 hPa 0,0 l/m 7,2 km/h (2 Bft) S 180 -2,0 C 3,2 C
18.04.2012 05:36 5,0 C 61 % 1001,3 hPa 0,0 l/m 7,6 km/h (2 Bft) SO 135 -1,9 C 3,2 C
18.04.2012 05:41 5,0 C 61 % 1001,1 hPa 0,0 l/m 2,9 km/h (1 Bft) O-SO 112 -1,9 C 5,0 C
18.04.2012 05:46 5,0 C 61 % 1000,9 hPa 0,0 l/m 4,0 km/h (1 Bft) S-SW 202 -1,9 C 5,0 C
18.04.2012 05:51 5,0 C 61 % 1001,1 hPa 0,0 l/m 5,0 km/h (1 Bft) S 180 -1,9 C 4,1 C
18.04.2012 05:56 5,0 C 61 % 1001,1 hPa 0,0 l/m 4,7 km/h (1 Bft) S-SO 157 -1,9 C 4,2 C
18.04.2012 06:01 5,0 C 61 % 1000,9 hPa 0,0 l/m 4,0 km/h (1 Bft) S-SO 157 -1,9 C 5,0 C
18.04.2012 06:06 5,0 C 61 % 1000,9 hPa 0,0 l/m 0,0 km/h (0 Bft) O-SO 112 -1,9 C 5,0 C
18.04.2012 06:11 5,0 C 61 % 1000,9 hPa 0,0 l/m 4,0 km/h (1 Bft) SO 135 -1,9 C 5,0 C
18.04.2012 06:16 5,0 C 61 % 1000,9 hPa 0,0 l/m 6,8 km/h (2 Bft) SO 135 -1,9 C 3,5 C
18.04.2012 06:21 5,0 C 61 % 1001,0 hPa 0,0 l/m 4,3 km/h (1 Bft) S-SO 157 -1,9 C 5,0 C
18.04.2012 06:26 5,0 C 61 % 1000,9 hPa 0,0 l/m 0,0 km/h (0 Bft) SO 135 -1,9 C 5,0 C
18.04.2012 06:31 5,0 C 61 % 1000,8 hPa 0,0 l/m 6,1 km/h (2 Bft) S-SO 157 -1,9 C 3,7 C
18.04.2012 06:36 4,9 C 61 % 1001,0 hPa 0,0 l/m 0,0 km/h (0 Bft) SO 135 -2,0 C 4,9 C
18.04.2012 06:41 4,9 C 61 % 1000,8 hPa 0,0 l/m 0,0 km/h (0 Bft) O-SO 112 -2,0 C 4,9 C
18.04.2012 06:46 4,9 C 62 % 1001,0 hPa 0,0 l/m 1,8 km/h (1 Bft) S-SO 157 -1,8 C 4,9 C
18.04.2012 06:51 4,9 C 62 % 1001,0 hPa 0,0 l/m 1,8 km/h (1 Bft) O-SO 112 -1,8 C 4,9 C
18.04.2012 06:56 4,9 C 62 % 1001,1 hPa 0,0 l/m 0,0 km/h (0 Bft) O-SO 112 -1,8 C 4,9 C
18.04.2012 07:01 4,9 C 62 % 1000,9 hPa 0,0 l/m 2,5 km/h (1 Bft) O-SO 112 -1,8 C 4,9 C
18.04.2012 07:06 4,9 C 62 % 1001,0 hPa 0,0 l/m 1,4 km/h (1 Bft) SO 135 -1,8 C 4,9 C
18.04.2012 07:11 4,9 C 62 % 1001,0 hPa 0,0 l/m 1,8 km/h (1 Bft) O 90 -1,8 C 4,9 C
18.04.2012 07:16 4,9 C 62 % 1001,2 hPa 0,0 l/m 0,0 km/h (0 Bft) SO 135 -1,8 C 4,9 C
18.04.2012 07:21 4,9 C 63 % 1001,1 hPa 0,0 l/m 4,7 km/h (1 Bft) SO 135 -1,5 C 4,1 C
18.04.2012 07:26 4,9 C 63 % 1001,1 hPa 0,0 l/m 2,5 km/h (1 Bft) SO 135 -1,5 C 4,9 C
18.04.2012 07:31 4,9 C 63 % 1001,1 hPa 0,0 l/m 2,5 km/h (1 Bft) SO 135 -1,5 C 4,9 C
18.04.2012 07:36 4,9 C 63 % 1001,2 hPa 0,0 l/m 3,2 km/h (1 Bft) O-SO 112 -1,5 C 4,9 C
18.04.2012 07:41 5,0 C 63 % 1001,1 hPa 0,0 l/m 5,0 km/h (1 Bft) S-SO 157 -1,4 C 4,1 C
18.04.2012 07:46 5,0 C 63 % 1001,1 hPa 0,0 l/m 2,5 km/h (1 Bft) S-SO 157 -1,4 C 5,0 C
18.04.2012 07:51 5,1 C 63 % 1001,1 hPa 0,0 l/m 4,0 km/h (1 Bft) S-SO 157 -1,4 C 5,1 C
18.04.2012 07:56 5,3 C 63 % 1001,1 hPa 0,0 l/m 2,2 km/h (1 Bft) O-SO 112 -1,2 C 5,3 C
18.04.2012 08:01 5,6 C 64 % 1001,1 hPa 0,0 l/m 5,4 km/h (1 Bft) O-SO 112 -0,7 C 4,6 C
18.04.2012 08:06 5,8 C 63 % 1001,1 hPa 0,0 l/m 3,2 km/h (1 Bft) S-SO 157 -0,7 C 5,8 C
18.04.2012 08:11 6,2 C 63 % 1001,0 hPa 0,0 l/m 6,1 km/h (2 Bft) S 180 -0,3 C 5,1 C
18.04.2012 08:16 6,6 C 62 % 1001,0 hPa 0,0 l/m 5,0 km/h (1 Bft) O 90 -0,1 C 5,9 C
18.04.2012 08:21 7,0 C 61 % 1001,1 hPa 0,0 l/m 8,3 km/h (2 Bft) S-SO 157 0,0 C 5,4 C
18.04.2012 08:26 7,3 C 60 % 1000,9 hPa 0,0 l/m 7,6 km/h (2 Bft) SO 135 0,1 C 5,9 C
18.04.2012 08:31 7,6 C 60 % 1001,0 hPa 0,0 l/m 6,8 km/h (2 Bft) SO 135 0,3 C 6,5 C
18.04.2012 08:36 7,8 C 59 % 1001,1 hPa 0,0 l/m 14,8 km/h (3 Bft) SO 135 0,3 C 5,2 C
18.04.2012 08:41 7,9 C 59 % 1000,9 hPa 0,0 l/m 7,6 km/h (2 Bft) S-SO 157 0,4 C 6,6 C
18.04.2012 08:46 7,9 C 59 % 1000,9 hPa 0,0 l/m 10,4 km/h (2 Bft) S-SW 202 0,4 C 6,0 C
18.04.2012 08:51 8,1 C 58 % 1001,1 hPa 0,0 l/m 1,4 km/h (1 Bft) O-SO 112 0,3 C 8,1 C
18.04.2012 08:56 8,3 C 58 % 1001,0 hPa 0,0 l/m 2,2 km/h (1 Bft) SO 135 0,5 C 8,3 C
18.04.2012 09:01 8,5 C 58 % 1001,1 hPa 0,0 l/m 5,4 km/h (1 Bft) W-SW 247 0,7 C 7,9 C
18.04.2012 09:06 8,7 C 58 % 1001,0 hPa 0,0 l/m 7,6 km/h (2 Bft) S 180 0,9 C 7,6 C
18.04.2012 09:11 8,9 C 58 % 1001,1 hPa 0,0 l/m 6,1 km/h (2 Bft) S-SO 157 1,1 C 8,2 C
18.04.2012 09:16 9,0 C 57 % 1001,1 hPa 0,0 l/m 3,2 km/h (1 Bft) SW 225 0,9 C 9,0 C
18.04.2012 09:21 9,2 C 57 % 1000,8 hPa 0,0 l/m 5,0 km/h (1 Bft) S-SW 202 1,1 C 8,8 C
18.04.2012 09:26 9,3 C 57 % 1000,8 hPa 0,0 l/m 11,9 km/h (2 Bft) S 180 1,2 C 7,5 C
18.04.2012 09:31 9,2 C 56 % 1000,9 hPa 0,0 l/m 11,9 km/h (2 Bft) S-SO 157 0,9 C 7,4 C
18.04.2012 09:36 9,3 C 57 % 1001,0 hPa 0,0 l/m 7,2 km/h (2 Bft) S-SW 202 1,2 C 8,4 C
18.04.2012 09:41 9,3 C 56 % 1001,0 hPa 0,0 l/m 7,6 km/h (2 Bft) O-SO 112 1,0 C 8,3 C
18.04.2012 09:46 9,5 C 56 % 1000,8 hPa 0,0 l/m 8,6 km/h (2 Bft) S-SW 202 1,2 C 8,3 C
18.04.2012 09:51 9,6 C 56 % 1000,9 hPa 0,0 l/m 2,5 km/h (1 Bft) SO 135 1,3 C 9,6 C
18.04.2012 09:56 9,8 C 56 % 1001,0 hPa 0,0 l/m 3,2 km/h (1 Bft) S 180 1,4 C 9,8 C
18.04.2012 10:01 9,9 C 56 % 1001,0 hPa 0,0 l/m 2,5 km/h (1 Bft) O-SO 112 1,5 C 9,9 C
18.04.2012 10:06 10,0 C 56 % 1000,8 hPa 0,0 l/m 3,2 km/h (1 Bft) O 90 1,6 C 10,0 C
18.04.2012 10:11 10,1 C 56 % 1000,8 hPa 0,0 l/m 4,7 km/h (1 Bft) S-SW 202 1,7 C 10,1 C
18.04.2012 10:16 10,2 C 56 % 1000,8 hPa 0,0 l/m 6,5 km/h (2 Bft) O-SO 112 1,8 C 10,2 C
18.04.2012 10:21 10,4 C 56 % 1000,6 hPa 0,0 l/m 14,4 km/h (3 Bft) S-SW 202 2,0 C 10,4 C
18.04.2012 10:26 10,6 C 55 % 1000,6 hPa 0,0 l/m 2,2 km/h (1 Bft) O-SO 112 1,9 C 10,6 C
18.04.2012 10:31 10,9 C 55 % 1000,7 hPa 0,0 l/m 4,0 km/h (1 Bft) S-SO 157 2,2 C 10,9 C
18.04.2012 10:36 11,2 C 55 % 1000,6 hPa 0,0 l/m 2,9 km/h (1 Bft) S-SO 157 2,5 C 11,2 C
18.04.2012 10:41 11,3 C 55 % 1000,6 hPa 0,0 l/m 13,7 km/h (3 Bft) S-SW 202 2,6 C 11,3 C
18.04.2012 10:46 11,3 C 54 % 1000,7 hPa 0,0 l/m 3,6 km/h (1 Bft) S-SW 202 2,3 C 11,3 C
18.04.2012 10:51 11,3 C 54 % 1000,6 hPa 0,0 l/m 18,7 km/h (3 Bft) S-SO 157 2,3 C 11,3 C
18.04.2012 10:56 11,4 C 54 % 1000,6 hPa 0,0 l/m 5,8 km/h (2 Bft) S-SO 157 2,4 C 11,4 C
18.04.2012 11:01 11,5 C 54 % 1000,5 hPa 0,0 l/m 4,7 km/h (1 Bft) S-SO 157 2,5 C 11,5 C
18.04.2012 11:06 11,8 C 53 % 1000,5 hPa 0,0 l/m 7,9 km/h (2 Bft) S-SO 157 2,5 C 11,8 C
18.04.2012 11:11 11,9 C 53 % 1000,6 hPa 0,0 l/m 4,7 km/h (1 Bft) S-SW 202 2,6 C 11,9 C
18.04.2012 11:16 11,9 C 53 % 1000,6 hPa 0,0 l/m 4,3 km/h (1 Bft) S-SO 157 2,6 C 11,9 C
18.04.2012 11:21 11,8 C 53 % 1000,5 hPa 0,0 l/m 7,9 km/h (2 Bft) S-SW 202 2,5 C 11,8 C
18.04.2012 11:26 11,8 C 53 % 1000,6 hPa 0,0 l/m 14,0 km/h (3 Bft) SW 225 2,5 C 11,8 C
18.04.2012 11:31 11,9 C 53 % 1000,6 hPa 0,0 l/m 13,7 km/h (3 Bft) S-SW 202 2,6 C 11,9 C
18.04.2012 11:36 11,9 C 53 % 1000,5 hPa 0,0 l/m 14,4 km/h (3 Bft) S-SW 202 2,6 C 11,9 C
18.04.2012 11:41 11,9 C 53 % 1000,4 hPa 0,0 l/m 9,7 km/h (2 Bft) S 180 2,6 C 11,9 C
18.04.2012 11:46 11,9 C 53 % 1000,2 hPa 0,0 l/m 6,8 km/h (2 Bft) S-SW 202 2,6 C 11,9 C
18.04.2012 11:51 12,1 C 53 % 1000,1 hPa 0,0 l/m 11,2 km/h (2 Bft) S 180 2,8 C 12,1 C
18.04.2012 11:56 12,1 C 52 % 1000,0 hPa 0,0 l/m 13,0 km/h (3 Bft) S-SW 202 2,5 C 12,1 C
18.04.2012 12:01 12,3 C 52 % 1000,1 hPa 0,0 l/m 8,6 km/h (2 Bft) S-SO 157 2,7 C 12,3 C
18.04.2012 12:06 12,4 C 52 % 1000,1 hPa 0,0 l/m 4,0 km/h (1 Bft) S-SW 202 2,8 C 12,4 C
18.04.2012 12:11 12,5 C 51 % 999,9 hPa 0,0 l/m 4,7 km/h (1 Bft) S 180 2,6 C 12,5 C
18.04.2012 12:16 12,6 C 52 % 1000,0 hPa 0,0 l/m 9,4 km/h (2 Bft) S-SW 202 3,0 C 12,6 C
18.04.2012 12:21 12,6 C 52 % 999,9 hPa 0,0 l/m 16,2 km/h (3 Bft) S 180 3,0 C 12,6 C
18.04.2012 12:26 12,6 C 51 % 999,9 hPa 0,0 l/m 8,3 km/h (2 Bft) S 180 2,7 C 12,6 C
18.04.2012 12:31 12,8 C 51 % 999,8 hPa 0,0 l/m 7,2 km/h (2 Bft) S 180 2,9 C 12,8 C
18.04.2012 12:36 12,9 C 51 % 999,8 hPa 0,0 l/m 14,8 km/h (3 Bft) S-SW 202 3,0 C 12,9 C
18.04.2012 12:41 13,1 C 51 % 999,7 hPa 0,0 l/m 13,7 km/h (3 Bft) S 180 3,2 C 13,1 C
18.04.2012 12:46 13,2 C 51 % 999,6 hPa 0,0 l/m 10,1 km/h (2 Bft) S-SO 157 3,3 C 13,2 C
18.04.2012 12:51 13,3 C 51 % 999,6 hPa 0,0 l/m 7,6 km/h (2 Bft) S 180 3,4 C 13,3 C
18.04.2012 12:56 13,4 C 50 % 999,5 hPa 0,0 l/m 6,8 km/h (2 Bft) S 180 3,2 C 13,4 C
18.04.2012 13:01 13,5 C 50 % 999,5 hPa 0,0 l/m 8,3 km/h (2 Bft) S 180 3,3 C 13,5 C
18.04.2012 13:06 13,5 C 50 % 999,5 hPa 0,0 l/m 11,2 km/h (2 Bft) S-SO 157 3,3 C 13,5 C
18.04.2012 13:11 13,4 C 50 % 999,4 hPa 0,0 l/m 3,2 km/h (1 Bft) S-SO 157 3,2 C 13,4 C
18.04.2012 13:16 13,4 C 49 % 999,4 hPa 0,0 l/m 14,8 km/h (3 Bft) S 180 2,9 C 13,4 C
18.04.2012 13:21 13,4 C 50 % 999,4 hPa 0,0 l/m 5,8 km/h (2 Bft) S-SO 157 3,2 C 13,4 C
18.04.2012 13:26 13,5 C 50 % 999,4 hPa 0,0 l/m 13,3 km/h (3 Bft) S-SW 202 3,3 C 13,5 C
18.04.2012 13:31 13,9 C 50 % 999,2 hPa 0,0 l/m 4,0 km/h (1 Bft) S-SO 157 3,7 C 13,9 C
18.04.2012 13:36 13,9 C 49 % 999,3 hPa 0,0 l/m 14,4 km/h (3 Bft) W-SW 247 3,4 C 13,9 C
18.04.2012 13:41 14,1 C 49 % 999,2 hPa 0,0 l/m 9,4 km/h (2 Bft) S-SO 157 3,6 C 14,1 C
18.04.2012 13:46 14,1 C 48 % 999,2 hPa 0,0 l/m 6,1 km/h (2 Bft) SO 135 3,3 C 14,1 C
18.04.2012 13:51 14,1 C 48 % 999,2 hPa 0,0 l/m 18,4 km/h (3 Bft) S-SW 202 3,3 C 14,1 C
18.04.2012 13:56 14,0 C 47 % 999,2 hPa 0,0 l/m 13,3 km/h (3 Bft) SW 225 2,9 C 14,0 C
18.04.2012 14:01 13,9 C 47 % 999,0 hPa 0,0 l/m 7,2 km/h (2 Bft) SO 135 2,8 C 13,9 C
18.04.2012 14:06 13,8 C 48 % 998,8 hPa 0,0 l/m 17,3 km/h (3 Bft) SO 135 3,0 C 13,8 C
18.04.2012 14:11 13,6 C 47 % 998,7 hPa 0,0 l/m 11,9 km/h (2 Bft) S-SO 157 2,5 C 13,6 C
18.04.2012 14:16 13,4 C 48 % 998,7 hPa 0,0 l/m 13,0 km/h (3 Bft) S 180 2,6 C 13,4 C
18.04.2012 14:21 13,3 C 48 % 998,7 hPa 0,0 l/m 14,8 km/h (3 Bft) SO 135 2,5 C 13,3 C
18.04.2012 14:26 13,2 C 48 % 998,6 hPa 0,0 l/m 6,1 km/h (2 Bft) SO 135 2,4 C 13,2 C
18.04.2012 14:31 13,3 C 49 % 998,6 hPa 0,0 l/m 2,2 km/h (1 Bft) S-SO 157 2,8 C 13,3 C
18.04.2012 14:36 13,3 C 49 % 998,6 hPa 0,0 l/m 6,5 km/h (2 Bft) S 180 2,8 C 13,3 C
18.04.2012 14:41 13,4 C 49 % 998,6 hPa 0,0 l/m 10,1 km/h (2 Bft) S-SO 157 2,9 C 13,4 C
18.04.2012 14:46 13,6 C 49 % 998,6 hPa 0,0 l/m 5,8 km/h (2 Bft) SO 135 3,1 C 13,6 C
18.04.2012 14:51 13,6 C 48 % 998,6 hPa 0,0 l/m 4,7 km/h (1 Bft) S 180 2,8 C 13,6 C
18.04.2012 14:56 13,5 C 48 % 998,6 hPa 0,0 l/m 6,5 km/h (2 Bft) S 180 2,7 C 13,5 C
18.04.2012 15:01 13,4 C 48 % 998,6 hPa 0,0 l/m 13,7 km/h (3 Bft) S-SW 202 2,6 C 13,4 C
18.04.2012 15:06 13,3 C 48 % 998,5 hPa 0,0 l/m 6,8 km/h (2 Bft) S-SO 157 2,5 C 13,3 C
18.04.2012 15:11 13,4 C 48 % 998,4 hPa 0,0 l/m 14,8 km/h (3 Bft) S-SO 157 2,6 C 13,4 C
18.04.2012 15:16 13,4 C 48 % 998,4 hPa 0,0 l/m 3,2 km/h (1 Bft) S-SO 157 2,6 C 13,4 C
18.04.2012 15:21 13,5 C 48 % 998,3 hPa 0,0 l/m 6,8 km/h (2 Bft) S-SO 157 2,7 C 13,5 C
18.04.2012 15:26 13,5 C 48 % 998,2 hPa 0,0 l/m 8,3 km/h (2 Bft) SW 225 2,7 C 13,5 C
18.04.2012 15:31 13,4 C 48 % 998,1 hPa 0,0 l/m 10,4 km/h (2 Bft) S 180 2,6 C 13,4 C
18.04.2012 15:36 13,4 C 48 % 998,2 hPa 0,0 l/m 2,5 km/h (1 Bft) S-SO 157 2,6 C 13,4 C
18.04.2012 15:41 13,3 C 49 % 998,2 hPa 0,0 l/m 5,0 km/h (1 Bft) S-SO 157 2,8 C 13,3 C
18.04.2012 15:46 13,3 C 49 % 998,2 hPa 0,0 l/m 15,8 km/h (3 Bft) SO 135 2,8 C 13,3 C
18.04.2012 15:51 13,2 C 48 % 998,2 hPa 0,0 l/m 7,2 km/h (2 Bft) SO 135 2,4 C 13,2 C
18.04.2012 15:56 13,2 C 48 % 998,1 hPa 0,0 l/m 4,0 km/h (1 Bft) S-SW 202 2,4 C 13,2 C
18.04.2012 16:01 13,3 C 48 % 998,2 hPa 0,0 l/m 4,0 km/h (1 Bft) S-SW 202 2,5 C 13,3 C
18.04.2012 16:06 13,4 C 48 % 998,0 hPa 0,0 l/m 18,7 km/h (3 Bft) S-SO 157 2,6 C 13,4 C
18.04.2012 16:11 13,4 C 48 % 998,0 hPa 0,0 l/m 11,2 km/h (2 Bft) S-SO 157 2,6 C 13,4 C
18.04.2012 16:16 13,3 C 48 % 998,0 hPa 0,0 l/m 9,0 km/h (2 Bft) S-SW 202 2,5 C 13,3 C
18.04.2012 16:21 13,4 C 48 % 997,9 hPa 0,0 l/m 6,1 km/h (2 Bft) SO 135 2,6 C 13,4 C
18.04.2012 16:26 13,5 C 48 % 997,9 hPa 0,0 l/m 14,8 km/h (3 Bft) S 180 2,7 C 13,5 C
18.04.2012 16:31 13,6 C 47 % 997,7 hPa 0,0 l/m 9,4 km/h (2 Bft) SW 225 2,5 C 13,6 C
18.04.2012 16:36 13,6 C 47 % 997,8 hPa 0,0 l/m 8,6 km/h (2 Bft) SW 225 2,5 C 13,6 C
18.04.2012 16:41 13,6 C 47 % 997,8 hPa 0,0 l/m 9,4 km/h (2 Bft) S-SO 157 2,5 C 13,6 C
18.04.2012 16:46 13,6 C 47 % 997,7 hPa 0,0 l/m 4,0 km/h (1 Bft) S-SO 157 2,5 C 13,6 C
18.04.2012 16:51 13,6 C 47 % 997,7 hPa 0,0 l/m 6,5 km/h (2 Bft) SO 135 2,5 C 13,6 C
18.04.2012 16:56 13,5 C 47 % 997,7 hPa 0,0 l/m 8,3 km/h (2 Bft) S-SO 157 2,4 C 13,5 C
18.04.2012 17:01 13,5 C 47 % 997,7 hPa 0,0 l/m 12,6 km/h (3 Bft) SO 135 2,4 C 13,5 C
18.04.2012 17:06 13,5 C 47 % 997,7 hPa 0,0 l/m 4,7 km/h (1 Bft) S-SO 157 2,4 C 13,5 C
18.04.2012 17:11 13,4 C 47 % 997,6 hPa 0,0 l/m 10,4 km/h (2 Bft) SO 135 2,3 C 13,4 C
18.04.2012 17:16 13,3 C 47 % 997,6 hPa 0,0 l/m 8,3 km/h (2 Bft) S 180 2,2 C 13,3 C
18.04.2012 17:21 13,2 C 47 % 997,5 hPa 0,0 l/m 6,5 km/h (2 Bft) S-SO 157 2,1 C 13,2 C
18.04.2012 17:26 13,2 C 47 % 997,5 hPa 0,0 l/m 8,3 km/h (2 Bft) SO 135 2,1 C 13,2 C
18.04.2012 17:31 13,2 C 47 % 997,6 hPa 0,0 l/m 11,5 km/h (2 Bft) S-SO 157 2,1 C 13,2 C
18.04.2012 17:36 13,2 C 47 % 997,4 hPa 0,0 l/m 4,3 km/h (1 Bft) S 180 2,1 C 13,2 C
18.04.2012 17:41 13,3 C 47 % 997,5 hPa 0,0 l/m 2,9 km/h (1 Bft) S-SO 157 2,2 C 13,3 C
18.04.2012 17:46 13,3 C 48 % 997,5 hPa 0,0 l/m 5,0 km/h (1 Bft) S 180 2,5 C 13,3 C
18.04.2012 17:51 13,3 C 48 % 997,5 hPa 0,0 l/m 3,6 km/h (1 Bft) S-SW 202 2,5 C 13,3 C
18.04.2012 17:56 13,3 C 48 % 997,5 hPa 0,0 l/m 5,8 km/h (2 Bft) S-SO 157 2,5 C 13,3 C
18.04.2012 18:01 13,3 C 48 % 997,4 hPa 0,0 l/m 7,6 km/h (2 Bft) S-SO 157 2,5 C 13,3 C
18.04.2012 18:06 13,2 C 48 % 997,3 hPa 0,0 l/m 7,9 km/h (2 Bft) S 180 2,4 C 13,2 C
18.04.2012 18:11 13,2 C 48 % 997,4 hPa 0,0 l/m 6,1 km/h (2 Bft) S-SO 157 2,4 C 13,2 C
18.04.2012 18:16 13,1 C 48 % 997,3 hPa 0,0 l/m 7,2 km/h (2 Bft) S-SO 157 2,3 C 13,1 C
18.04.2012 18:21 13,1 C 48 % 997,4 hPa 0,0 l/m 2,2 km/h (1 Bft) S-SO 157 2,3 C 13,1 C
18.04.2012 18:26 13,1 C 48 % 997,3 hPa 0,0 l/m 6,8 km/h (2 Bft) SO 135 2,3 C 13,1 C
18.04.2012 18:31 13,1 C 48 % 997,3 hPa 0,0 l/m 3,6 km/h (1 Bft) SO 135 2,3 C 13,1 C
18.04.2012 18:36 13,1 C 49 % 997,0 hPa 0,0 l/m 2,9 km/h (1 Bft) S-SO 157 2,6 C 13,1 C
18.04.2012 18:41 13,0 C 48 % 997,1 hPa 0,0 l/m 3,6 km/h (1 Bft) O-NO 67 2,3 C 13,0 C
18.04.2012 18:46 12,9 C 49 % 997,0 hPa 0,0 l/m 6,1 km/h (2 Bft) S 180 2,5 C 12,9 C
18.04.2012 18:51 12,9 C 49 % 997,2 hPa 0,0 l/m 4,0 km/h (1 Bft) S-SO 157 2,5 C 12,9 C
18.04.2012 18:56 12,9 C 49 % 997,0 hPa 0,0 l/m 5,8 km/h (2 Bft) SO 135 2,5 C 12,9 C
18.04.2012 19:01 12,9 C 49 % 997,1 hPa 0,0 l/m 3,6 km/h (1 Bft) SO 135 2,5 C 12,9 C
18.04.2012 19:06 12,9 C 49 % 997,1 hPa 0,0 l/m 3,6 km/h (1 Bft) S 180 2,5 C 12,9 C
18.04.2012 19:11 12,9 C 49 % 997,0 hPa 0,0 l/m 1,4 km/h (1 Bft) O-SO 112 2,5 C 12,9 C
18.04.2012 19:16 12,8 C 48 % 996,9 hPa 0,0 l/m 3,6 km/h (1 Bft) SO 135 2,1 C 12,8 C
18.04.2012 19:21 12,7 C 48 % 997,0 hPa 0,0 l/m 0,0 km/h (0 Bft) SO 135 2,0 C 12,7 C
18.04.2012 19:26 12,5 C 49 % 996,9 hPa 0,0 l/m 3,2 km/h (1 Bft) SO 135 2,1 C 12,5 C
18.04.2012 19:31 12,5 C 49 % 996,9 hPa 0,0 l/m 1,4 km/h (1 Bft) S-SO 157 2,1 C 12,5 C
18.04.2012 19:36 12,4 C 49 % 996,9 hPa 0,0 l/m 4,0 km/h (1 Bft) S-SO 157 2,0 C 12,4 C
18.04.2012 19:41 12,4 C 50 % 996,9 hPa 0,0 l/m 2,9 km/h (1 Bft) SO 135 2,3 C 12,4 C
18.04.2012 19:46 12,4 C 50 % 997,0 hPa 0,0 l/m 3,2 km/h (1 Bft) SO 135 2,3 C 12,4 C
18.04.2012 19:51 12,3 C 50 % 996,9 hPa 0,0 l/m 5,4 km/h (1 Bft) S-SO 157 2,2 C 12,3 C
18.04.2012 19:56 12,1 C 50 % 996,9 hPa 0,0 l/m 2,5 km/h (1 Bft) SO 135 2,0 C 12,1 C
18.04.2012 20:01 11,9 C 50 % 996,8 hPa 0,0 l/m 0,0 km/h (0 Bft) O-SO 112 1,8 C 11,9 C
18.04.2012 20:06 11,8 C 51 % 996,9 hPa 0,0 l/m 4,0 km/h (1 Bft) SO 135 2,0 C 11,8 C
18.04.2012 20:11 11,6 C 51 % 997,0 hPa 0,0 l/m 2,9 km/h (1 Bft) SO 135 1,8 C 11,6 C
18.04.2012 20:16 11,5 C 51 % 997,0 hPa 0,0 l/m 2,2 km/h (1 Bft) O-SO 112 1,7 C 11,5 C
18.04.2012 20:21 11,3 C 52 % 996,8 hPa 0,0 l/m 2,2 km/h (1 Bft) SO 135 1,8 C 11,3 C
18.04.2012 20:26 11,2 C 52 % 996,9 hPa 0,0 l/m 3,2 km/h (1 Bft) SO 135 1,7 C 11,2 C
18.04.2012 20:31 11,0 C 53 % 996,9 hPa 0,0 l/m 4,0 km/h (1 Bft) SO 135 1,8 C 11,0 C
18.04.2012 20:36 10,9 C 53 % 997,0 hPa 0,0 l/m 4,0 km/h (1 Bft) SO 135 1,7 C 10,9 C
18.04.2012 20:41 10,7 C 54 % 997,0 hPa 0,0 l/m 1,8 km/h (1 Bft) O-SO 112 1,8 C 10,7 C
18.04.2012 20:46 10,5 C 54 % 996,9 hPa 0,0 l/m 1,4 km/h (1 Bft) O-SO 112 1,6 C 10,5 C
18.04.2012 20:51 10,3 C 54 % 997,0 hPa 0,0 l/m 3,2 km/h (1 Bft) O-SO 112 1,4 C 10,3 C
18.04.2012 20:56 10,1 C 55 % 997,0 hPa 0,0 l/m 2,9 km/h (1 Bft) O-SO 112 1,5 C 10,1 C
18.04.2012 21:01 9,9 C 56 % 997,0 hPa 0,0 l/m 2,2 km/h (1 Bft) SO 135 1,5 C 9,9 C
18.04.2012 21:06 9,8 C 56 % 996,9 hPa 0,0 l/m 3,2 km/h (1 Bft) O 90 1,4 C 9,8 C
18.04.2012 21:11 9,6 C 57 % 997,2 hPa 0,0 l/m 3,6 km/h (1 Bft) O-SO 112 1,5 C 9,6 C
18.04.2012 21:16 9,4 C 58 % 996,8 hPa 0,0 l/m 2,5 km/h (1 Bft) O 90 1,6 C 9,4 C
18.04.2012 21:21 9,2 C 58 % 997,0 hPa 0,0 l/m 0,0 km/h (0 Bft) O-SO 112 1,4 C 9,2 C
18.04.2012 21:26 9,1 C 59 % 997,0 hPa 0,0 l/m 1,1 km/h (1 Bft) SO 135 1,5 C 9,1 C
18.04.2012 21:31 9,0 C 59 % 997,2 hPa 0,0 l/m 2,2 km/h (1 Bft) O-SO 112 1,4 C 9,0 C
18.04.2012 21:36 8,9 C 59 % 997,2 hPa 0,0 l/m 5,0 km/h (1 Bft) O 90 1,3 C 8,5 C
18.04.2012 21:41 8,8 C 59 % 997,1 hPa 0,0 l/m 3,6 km/h (1 Bft) O-SO 112 1,2 C 8,8 C
18.04.2012 21:46 8,8 C 60 % 997,0 hPa 0,0 l/m 2,5 km/h (1 Bft) O 90 1,5 C 8,8 C
18.04.2012 21:51 8,7 C 60 % 997,0 hPa 0,0 l/m 0,0 km/h (0 Bft) O-SO 112 1,4 C 8,7 C
18.04.2012 21:56 8,7 C 60 % 997,0 hPa 0,0 l/m 0,0 km/h (0 Bft) O-SO 112 1,4 C 8,7 C
18.04.2012 22:01 8,6 C 61 % 997,1 hPa 0,0 l/m 0,0 km/h (0 Bft) O-SO 112 1,5 C 8,6 C
18.04.2012 22:06 8,6 C 61 % 996,9 hPa 0,0 l/m 2,5 km/h (1 Bft) O 90 1,5 C 8,6 C
18.04.2012 22:11 8,5 C 61 % 997,0 hPa 0,0 l/m 1,1 km/h (1 Bft) O-SO 112 1,4 C 8,5 C
18.04.2012 22:16 8,4 C 62 % 996,9 hPa 0,0 l/m 4,7 km/h (1 Bft) O-SO 112 1,6 C 8,0 C
18.04.2012 22:21 8,3 C 62 % 996,8 hPa 0,0 l/m 3,2 km/h (1 Bft) O 90 1,5 C 8,3 C
18.04.2012 22:26 8,2 C 62 % 997,0 hPa 0,0 l/m 4,7 km/h (1 Bft) O-SO 112 1,4 C 7,8 C
18.04.2012 22:31 8,1 C 63 % 996,9 hPa 0,0 l/m 2,5 km/h (1 Bft) O-SO 112 1,5 C 8,1 C
18.04.2012 22:36 8,1 C 63 % 996,9 hPa 0,0 l/m 0,0 km/h (0 Bft) O-SO 112 1,5 C 8,1 C
18.04.2012 22:41 8,1 C 64 % 996,8 hPa 0,0 l/m 1,4 km/h (1 Bft) O-SO 112 1,7 C 8,1 C
18.04.2012 22:46 8,1 C 64 % 996,9 hPa 0,0 l/m 2,2 km/h (1 Bft) O 90 1,7 C 8,1 C
18.04.2012 22:51 7,9 C 65 % 996,9 hPa 0,0 l/m 2,5 km/h (1 Bft) SO 135 1,7 C 7,9 C
18.04.2012 22:56 7,9 C 65 % 996,7 hPa 0,0 l/m 3,2 km/h (1 Bft) O-SO 112 1,7 C 7,9 C
18.04.2012 23:01 7,9 C 65 % 996,9 hPa 0,0 l/m 2,9 km/h (1 Bft) O-SO 112 1,7 C 7,9 C
18.04.2012 23:06 7,8 C 65 % 996,6 hPa 0,0 l/m 5,0 km/h (1 Bft) O 90 1,6 C 7,3 C
18.04.2012 23:11 7,7 C 65 % 996,7 hPa 0,0 l/m 4,7 km/h (1 Bft) O-SO 112 1,5 C 7,3 C
18.04.2012 23:16 7,6 C 65 % 996,8 hPa 0,0 l/m 4,7 km/h (1 Bft) O-SO 112 1,5 C 7,1 C
18.04.2012 23:21 7,6 C 65 % 996,5 hPa 0,0 l/m 4,3 km/h (1 Bft) O 90 1,5 C 7,6 C
18.04.2012 23:26 7,5 C 66 % 996,6 hPa 0,0 l/m 4,3 km/h (1 Bft) O-SO 112 1,6 C 7,5 C
18.04.2012 23:31 7,5 C 66 % 996,6 hPa 0,0 l/m 4,0 km/h (1 Bft) O 90 1,6 C 7,5 C
18.04.2012 23:36 7,5 C 66 % 996,8 hPa 0,0 l/m 2,5 km/h (1 Bft) O 90 1,6 C 7,5 C
18.04.2012 23:41 7,5 C 65 % 996,6 hPa 0,0 l/m 2,5 km/h (1 Bft) O 90 1,4 C 7,5 C
18.04.2012 23:46 7,5 C 65 % 996,8 hPa 0,0 l/m 1,8 km/h (1 Bft) O-NO 67 1,4 C 7,5 C
18.04.2012 23:51 7,4 C 66 % 996,6 hPa 0,0 l/m 3,2 km/h (1 Bft) O-SO 112 1,5 C 7,4 C
18.04.2012 23:56 7,4 C 66 % 996,7 hPa 0,0 l/m 2,2 km/h (1 Bft) O 90 1,5 C 7,4 C
_ Min-Zeit 05:26 13:56 23:21 - 00:31 - - 00:06 05:21
Minimum _ 4,9 C 47 % 996,5 hPa - 0,0 km/h (0 Bft) - - -2,5 C 2,0 C
_ Max-Zeit 13:41 23:26 00:01 00:01 10:51 - - 13:31 13:41
Maximum _ 14,1 C 66 % 1004,5 hPa 0,0 l/m 18,7 km/h
S-SO (3 Bft)
- - 3,7 C 14,1 C
Durchschnitt _ 9,3 C 55 % 999,7 hPa #0,0 l/m 5,9 km/h (2 Bft) S-SO - 0,7 C 9,0 C
(c) by David Heller